sensor_id;sensor_type;location;lat;lon;timestamp;temperature;humidity
56436;DHT22;42335;44.872;20.658;2023-06-22T06:12:55;691.30;2432.00
56436;DHT22;42335;44.872;20.658;2023-06-22T06:17:52;691.70;2432.00
56436;DHT22;42335;44.872;20.658;2023-06-22T06:20:19;691.40;2432.00
56436;DHT22;42335;44.872;20.658;2023-06-22T06:22:46;691.20;2432.00
56436;DHT22;42335;44.872;20.658;2023-06-22T08:39:45;819.60;2099.20
56436;DHT22;42335;44.872;20.658;2023-06-22T08:42:12;819.30;2124.80
56436;DHT22;42335;44.872;20.658;2023-06-22T08:44:38;819.60;2099.20
56436;DHT22;42335;44.872;20.658;2023-06-22T08:47:03;819.80;2048.00
56436;DHT22;42335;44.872;20.658;2023-06-22T08:49:29;819.70;1920.00
56436;DHT22;42335;44.872;20.658;2023-06-22T08:51:55;819.80;1843.20
56436;DHT22;42335;44.872;20.658;2023-06-22T08:54:22;820.00;1843.20
56436;DHT22;42335;44.872;20.658;2023-06-22T09:04:06;845.00;1664.00
56436;DHT22;42335;44.872;20.658;2023-06-22T09:06:34;845.20;1638.40
56436;DHT22;42335;44.872;20.658;2023-06-22T09:09:00;845.10;1638.40
56436;DHT22;42335;44.872;20.658;2023-06-22T09:11:26;845.10;1664.00
56436;DHT22;42335;44.872;20.658;2023-06-22T09:13:51;845.30;1612.80
56436;DHT22;42335;44.872;20.658;2023-06-22T09:16:19;844.90;1638.40
56436;DHT22;42335;44.872;20.658;2023-06-22T09:18:48;844.90;1638.40
56436;DHT22;42335;44.872;20.658;2023-06-22T09:21:14;845.20;1561.60
56436;DHT22;42335;44.872;20.658;2023-06-22T09:23:40;844.90;1561.60
56436;DHT22;42335;44.872;20.658;2023-06-22T09:26:05;844.90;1536.00
56436;DHT22;42335;44.872;20.658;2023-06-22T09:33:26;845.70;1536.00
56436;DHT22;42335;44.872;20.658;2023-06-22T09:35:52;845.50;1612.80
56436;DHT22;42335;44.872;20.658;2023-06-22T09:38:17;845.40;1740.80
56436;DHT22;42335;44.872;20.658;2023-06-22T09:40:43;845.40;1766.40
56436;DHT22;42335;44.872;20.658;2023-06-22T09:43:09;870.40;1792.00
56436;DHT22;42335;44.872;20.658;2023-06-22T09:45:34;845.70;1792.00
56436;DHT22;42335;44.872;20.658;2023-06-22T09:48:00;845.40;1817.60
56436;DHT22;42335;44.872;20.658;2023-06-22T09:52:52;845.70;1817.60
56436;DHT22;42335;44.872;20.658;2023-06-22T09:55:21;845.40;1843.20
56436;DHT22;42335;44.872;20.658;2023-06-22T09:57:47;845.40;1843.20
56436;DHT22;42335;44.872;20.658;2023-06-22T10:00:15;845.40;1817.60
56436;DHT22;42335;44.872;20.658;2023-06-22T10:02:41;845.30;1843.20
56436;DHT22;42335;44.872;20.658;2023-06-22T10:05:07;845.20;1843.20
56436;DHT22;42335;44.872;20.658;2023-06-22T10:07:33;845.20;1843.20
56436;DHT22;42335;44.872;20.658;2023-06-22T10:09:59;845.20;1792.00
56436;DHT22;42335;44.872;20.658;2023-06-22T10:53:53;870.80;1715.20
56436;DHT22;42335;44.872;20.658;2023-06-22T10:56:19;870.70;1740.80
56436;DHT22;42335;44.872;20.658;2023-06-22T12:31:24;870.90;1792.00
56436;DHT22;42335;44.872;20.658;2023-06-22T12:33:50;870.60;1766.40
56436;DHT22;42335;44.872;20.658;2023-06-22T12:36:15;870.70;1817.60
56436;DHT22;42335;44.872;20.658;2023-06-22T12:43:34;870.90;1843.20
56436;DHT22;42335;44.872;20.658;2023-06-22T12:45:59;870.80;1843.20
56436;DHT22;42335;44.872;20.658;2023-06-22T12:48:27;870.70;1843.20
56436;DHT22;42335;44.872;20.658;2023-06-22T12:50:53;870.70;1868.80
56436;DHT22;42335;44.872;20.658;2023-06-22T12:53:19;870.70;1868.80
56436;DHT22;42335;44.872;20.658;2023-06-22T12:55:44;870.70;1843.20
56436;DHT22;42335;44.872;20.658;2023-06-22T12:58:10;871.00;1817.60
56436;DHT22;42335;44.872;20.658;2023-06-22T13:00:37;871.10;1792.00
56436;DHT22;42335;44.872;20.658;2023-06-22T13:03:03;871.30;1766.40
56436;DHT22;42335;44.872;20.658;2023-06-22T13:05:38;870.70;1740.80
56436;DHT22;42335;44.872;20.658;2023-06-22T13:08:04;870.90;1792.00
56436;DHT22;42335;44.872;20.658;2023-06-22T13:10:29;870.90;1792.00
56436;DHT22;42335;44.872;20.658;2023-06-22T13:12:55;870.70;1766.40
56436;DHT22;42335;44.872;20.658;2023-06-22T13:15:27;870.80;1792.00
56436;DHT22;42335;44.872;20.658;2023-06-22T13:17:53;870.70;1792.00
56436;DHT22;42335;44.872;20.658;2023-06-22T13:20:18;870.80;1792.00
56436;DHT22;42335;44.872;20.658;2023-06-22T13:22:44;870.90;1766.40
56436;DHT22;42335;44.872;20.658;2023-06-22T13:25:10;870.90;1740.80
56436;DHT22;42335;44.872;20.658;2023-06-22T13:27:39;871.10;1715.20
56436;DHT22;42335;44.872;20.658;2023-06-22T13:30:05;870.80;1792.00
56436;DHT22;42335;44.872;20.658;2023-06-22T13:32:32;871.00;1766.40
56436;DHT22;42335;44.872;20.658;2023-06-22T13:37:25;871.20;1766.40
56436;DHT22;42335;44.872;20.658;2023-06-22T13:39:50;871.10;1766.40
56436;DHT22;42335;44.872;20.658;2023-06-22T13:42:16;871.00;1766.40
56436;DHT22;42335;44.872;20.658;2023-06-22T13:44:41;870.90;1766.40
56436;DHT22;42335;44.872;20.658;2023-06-22T13:47:07;871.10;1766.40
56436;DHT22;42335;44.872;20.658;2023-06-22T13:49:33;870.90;1792.00
56436;DHT22;42335;44.872;20.658;2023-06-22T13:51:59;870.90;1766.40
56436;DHT22;42335;44.872;20.658;2023-06-22T13:54:25;871.00;1740.80
56436;DHT22;42335;44.872;20.658;2023-06-22T13:56:51;871.30;1740.80
56436;DHT22;42335;44.872;20.658;2023-06-22T13:59:17;871.00;1766.40
56436;DHT22;42335;44.872;20.658;2023-06-22T14:01:42;871.00;1792.00
56436;DHT22;42335;44.872;20.658;2023-06-22T14:04:09;871.00;1792.00
56436;DHT22;42335;44.872;20.658;2023-06-22T14:06:35;870.90;1792.00
56436;DHT22;42335;44.872;20.658;2023-06-22T14:09:01;870.70;1817.60
56436;DHT22;42335;44.872;20.658;2023-06-22T14:11:26;870.90;1766.40
56436;DHT22;42335;44.872;20.658;2023-06-22T14:13:52;870.90;1766.40
56436;DHT22;42335;44.872;20.658;2023-06-22T14:16:18;871.10;1766.40
56436;DHT22;42335;44.872;20.658;2023-06-22T14:18:45;871.20;1740.80
56436;DHT22;42335;44.872;20.658;2023-06-22T14:21:10;870.90;1766.40
56436;DHT22;42335;44.872;20.658;2023-06-22T14:23:36;870.80;1792.00
56436;DHT22;42335;44.872;20.658;2023-06-22T14:28:29;870.50;1817.60
56436;DHT22;42335;44.872;20.658;2023-06-22T14:30:55;845.40;1843.20
56436;DHT22;42335;44.872;20.658;2023-06-22T17:45:46;768.40;2304.00
56436;DHT22;42335;44.872;20.658;2023-06-22T17:48:12;768.20;2329.60
56436;DHT22;42335;44.872;20.658;2023-06-22T17:50:39;768.10;2329.60
56436;DHT22;42335;44.872;20.658;2023-06-22T18:08:04;743.30;2355.20
56436;DHT22;42335;44.872;20.658;2023-06-22T18:37:31;743.00;2432.00
56436;DHT22;42335;44.872;20.658;2023-06-22T21:33:52;692.00;2432.00
56436;DHT22;42335;44.872;20.658;2023-06-22T21:36:18;691.80;2432.00
56436;DHT22;42335;44.872;20.658;2023-06-22T21:41:10;691.90;2432.00
